sensor_id;sensor_type;location;lat;lon;timestamp;pressure;altitude;pressure_sealevel;temperature;humidity
31585;BME280;18191;51.288;12.390;2023-02-02T00:03:24;49144.09;;;-144.47;91.20
31585;BME280;18191;51.288;12.390;2023-02-02T00:08:15;49120.25;;;-144.47;90.53
31585;BME280;18191;51.288;12.390;2023-02-02T00:13:06;49112.28;;;-144.47;90.90
31585;BME280;18191;51.288;12.390;2023-02-02T00:17:56;49169.97;;;-144.47;89.91
31585;BME280;18191;51.288;12.390;2023-02-02T00:22:46;49138.16;;;-144.47;90.97
31585;BME280;18191;51.288;12.390;2023-02-02T00:27:36;49156.03;;;-144.47;91.31
31585;BME280;18191;51.288;12.390;2023-02-02T00:32:26;49167.97;;;-144.47;90.93
31585;BME280;18191;51.288;12.390;2023-02-02T00:37:16;49128.19;;;-144.47;89.42
31585;BME280;18191;51.288;12.390;2023-02-02T00:42:08;49158.03;;;-144.47;86.92
31585;BME280;18191;51.288;12.390;2023-02-02T00:46:59;49148.09;;;-144.47;85.78
31585;BME280;18191;51.288;12.390;2023-02-02T00:51:49;49152.06;;;-144.47;86.55
31585;BME280;18191;51.288;12.390;2023-02-02T00:56:40;49142.13;;;-144.47;85.26
31585;BME280;18191;51.288;12.390;2023-02-02T01:01:30;49134.16;;;-144.47;84.12
31585;BME280;18191;51.288;12.390;2023-02-02T01:06:20;49158.03;;;-144.47;83.99
31585;BME280;18191;51.288;12.390;2023-02-02T01:11:10;49148.09;;;-144.47;83.28
31585;BME280;18191;51.288;12.390;2023-02-02T01:16:01;49128.19;;;-144.47;83.03
31585;BME280;18191;51.288;12.390;2023-02-02T01:21:05;49114.28;;;-144.47;83.02
31585;BME280;18191;51.288;12.390;2023-02-02T01:25:57;49152.06;;;-144.47;82.42
31585;BME280;18191;51.288;12.390;2023-02-02T01:30:50;49169.97;;;-144.47;81.77
31585;BME280;18191;51.288;12.390;2023-02-02T01:35:44;49140.13;;;-144.47;82.57
31585;BME280;18191;51.288;12.390;2023-02-02T01:40:34;49156.03;;;-144.47;81.67
31585;BME280;18191;51.288;12.390;2023-02-02T01:45:25;49156.03;;;-144.47;80.80
31585;BME280;18191;51.288;12.390;2023-02-02T01:50:17;49171.97;;;-144.47;81.13
31585;BME280;18191;51.288;12.390;2023-02-02T01:55:09;49118.25;;;-144.47;81.69
31585;BME280;18191;51.288;12.390;2023-02-02T02:00:01;49164.00;;;-144.47;81.42
31585;BME280;18191;51.288;12.390;2023-02-02T02:04:51;49098.34;;;-144.47;82.13
31585;BME280;18191;51.288;12.390;2023-02-02T02:09:42;49156.03;;;-144.47;81.98
31585;BME280;18191;51.288;12.390;2023-02-02T02:14:33;49166.00;;;-144.47;80.88
31585;BME280;18191;51.288;12.390;2023-02-02T02:25:13;49090.41;;;-144.47;81.46
31585;BME280;18191;51.288;12.390;2023-02-02T02:35:39;49152.06;;;-144.47;80.84
31585;BME280;18191;51.288;12.390;2023-02-02T02:40:35;49140.13;;;-144.47;79.87
31585;BME280;18191;51.288;12.390;2023-02-02T02:45:26;49148.09;;;-144.47;80.26
31585;BME280;18191;51.288;12.390;2023-02-02T02:50:17;49152.06;;;-144.47;78.39
31585;BME280;18191;51.288;12.390;2023-02-02T02:55:08;49124.22;;;-144.47;78.35
31585;BME280;18191;51.288;12.390;2023-02-02T03:04:56;49171.97;;;-144.47;77.07
31585;BME280;18191;51.288;12.390;2023-02-02T03:09:50;49156.03;;;-144.47;77.19
31585;BME280;18191;51.288;12.390;2023-02-02T03:14:41;49167.97;;;-144.47;76.65
31585;BME280;18191;51.288;12.390;2023-02-02T03:19:32;49136.16;;;-144.47;76.25
31585;BME280;18191;51.288;12.390;2023-02-02T03:24:22;49122.22;;;-144.47;75.51
31585;BME280;18191;51.288;12.390;2023-02-02T03:29:12;49144.09;;;-144.47;75.71
31585;BME280;18191;51.288;12.390;2023-02-02T03:34:03;49167.97;;;-144.47;76.00
31585;BME280;18191;51.288;12.390;2023-02-02T03:38:53;49167.97;;;-144.47;75.45
31585;BME280;18191;51.288;12.390;2023-02-02T03:43:43;49164.00;;;-144.47;74.97
31585;BME280;18191;51.288;12.390;2023-02-02T03:48:34;49128.19;;;-144.47;75.68
31585;BME280;18191;51.288;12.390;2023-02-02T03:53:25;49100.34;;;-144.47;75.50
31585;BME280;18191;51.288;12.390;2023-02-02T03:58:15;49114.28;;;-144.47;74.46
31585;BME280;18191;51.288;12.390;2023-02-02T04:03:06;49144.09;;;-144.47;73.65
31585;BME280;18191;51.288;12.390;2023-02-02T04:07:56;49140.13;;;-144.47;74.69
31585;BME280;18191;51.288;12.390;2023-02-02T04:12:46;49146.09;;;-144.47;73.47
31585;BME280;18191;51.288;12.390;2023-02-02T04:17:37;49112.28;;;-144.47;74.29
31585;BME280;18191;51.288;12.390;2023-02-02T04:22:27;49134.16;;;-144.47;73.83
31585;BME280;18191;51.288;12.390;2023-02-02T04:27:17;49126.22;;;-144.47;73.81
31585;BME280;18191;51.288;12.390;2023-02-02T04:32:07;49120.25;;;-144.47;73.80
31585;BME280;18191;51.288;12.390;2023-02-02T04:36:58;49144.09;;;-144.47;73.20
31585;BME280;18191;51.288;12.390;2023-02-02T04:41:48;49136.16;;;-144.47;73.66
31585;BME280;18191;51.288;12.390;2023-02-02T04:46:38;49132.16;;;-144.47;73.15
31585;BME280;18191;51.288;12.390;2023-02-02T04:51:28;49148.09;;;-144.47;73.36
31585;BME280;18191;51.288;12.390;2023-02-02T04:56:18;49104.31;;;-144.47;72.40
31585;BME280;18191;51.288;12.390;2023-02-02T05:01:13;49132.16;;;-144.47;72.44
31585;BME280;18191;51.288;12.390;2023-02-02T05:06:03;49124.22;;;-144.47;71.88
31585;BME280;18191;51.288;12.390;2023-02-02T05:10:54;49124.22;;;-144.47;72.82
31585;BME280;18191;51.288;12.390;2023-02-02T05:15:44;49146.09;;;-144.47;73.27
31585;BME280;18191;51.288;12.390;2023-02-02T05:20:34;49160.03;;;-144.47;73.52
31585;BME280;18191;51.288;12.390;2023-02-02T05:25:24;49148.09;;;-144.47;73.36
31585;BME280;18191;51.288;12.390;2023-02-02T05:30:15;49124.22;;;-144.47;73.38
31585;BME280;18191;51.288;12.390;2023-02-02T05:35:05;49140.13;;;-144.47;73.40
31585;BME280;18191;51.288;12.390;2023-02-02T05:39:56;49108.31;;;-144.47;74.20
31585;BME280;18191;51.288;12.390;2023-02-02T05:44:46;49112.28;;;-144.47;73.48
31585;BME280;18191;51.288;12.390;2023-02-02T05:49:36;49084.44;;;-144.47;73.24
31585;BME280;18191;51.288;12.390;2023-02-02T05:54:26;49120.25;;;-144.47;74.19
31585;BME280;18191;51.288;12.390;2023-02-02T05:59:17;49148.09;;;-144.47;73.49
31585;BME280;18191;51.288;12.390;2023-02-02T06:04:07;49150.06;;;-144.47;73.23
31585;BME280;18191;51.288;12.390;2023-02-02T06:08:57;49146.09;;;-144.47;73.35
31585;BME280;18191;51.288;12.390;2023-02-02T06:13:48;49167.97;;;-144.47;73.25
31585;BME280;18191;51.288;12.390;2023-02-02T06:18:38;49134.16;;;-144.47;73.59
31585;BME280;18191;51.288;12.390;2023-02-02T06:23:28;49120.25;;;-144.47;74.48
31585;BME280;18191;51.288;12.390;2023-02-02T06:28:19;49148.09;;;-144.47;74.01
31585;BME280;18191;51.288;12.390;2023-02-02T06:33:09;49148.09;;;-144.47;75.39
31585;BME280;18191;51.288;12.390;2023-02-02T06:37:59;49160.03;;;-144.47;73.79
31585;BME280;18191;51.288;12.390;2023-02-02T06:42:54;49144.09;;;-144.47;74.65
31585;BME280;18191;51.288;12.390;2023-02-02T06:47:44;49110.28;;;-144.47;73.89
31585;BME280;18191;51.288;12.390;2023-02-02T06:52:34;49138.16;;;-144.47;74.20
31585;BME280;18191;51.288;12.390;2023-02-02T06:57:24;49134.16;;;-144.47;73.66
31585;BME280;18191;51.288;12.390;2023-02-02T07:02:15;49140.13;;;-144.47;73.78
31585;BME280;18191;51.288;12.390;2023-02-02T07:07:05;49096.38;;;-144.47;73.20
31585;BME280;18191;51.288;12.390;2023-02-02T07:11:55;49128.19;;;-144.47;72.65
31585;BME280;18191;51.288;12.390;2023-02-02T07:16:45;49136.16;;;-144.47;72.20
31585;BME280;18191;51.288;12.390;2023-02-02T07:21:35;49146.09;;;-144.47;72.19
31585;BME280;18191;51.288;12.390;2023-02-02T07:26:26;49144.09;;;-144.47;71.79
31585;BME280;18191;51.288;12.390;2023-02-02T07:31:23;49132.16;;;-144.47;71.88
31585;BME280;18191;51.288;12.390;2023-02-02T07:36:14;49140.13;;;-144.47;70.72
31585;BME280;18191;51.288;12.390;2023-02-02T07:41:07;49146.09;;;-144.47;71.29
31585;BME280;18191;51.288;12.390;2023-02-02T07:45:58;49156.03;;;-144.47;71.17
31585;BME280;18191;51.288;12.390;2023-02-02T07:50:51;49116.25;;;-144.47;71.34
31585;BME280;18191;51.288;12.390;2023-02-02T07:55:41;49108.31;;;-144.47;70.17
31585;BME280;18191;51.288;12.390;2023-02-02T08:00:31;49138.16;;;-144.47;70.10
31585;BME280;18191;51.288;12.390;2023-02-02T08:05:21;49128.19;;;-144.47;71.03
31585;BME280;18191;51.288;12.390;2023-02-02T08:10:11;49088.41;;;-144.47;70.73
31585;BME280;18191;51.288;12.390;2023-02-02T08:15:02;49118.25;;;-144.47;71.09
31585;BME280;18191;51.288;12.390;2023-02-02T08:19:52;49126.22;;;-144.47;70.71
31585;BME280;18191;51.288;12.390;2023-02-02T08:24:42;49142.13;;;-144.47;70.20
31585;BME280;18191;51.288;12.390;2023-02-02T08:29:33;49162.00;;;-144.47;70.55
31585;BME280;18191;51.288;12.390;2023-02-02T08:34:23;49156.03;;;-144.47;70.12
31585;BME280;18191;51.288;12.390;2023-02-02T08:39:13;49100.34;;;-144.47;69.47
31585;BME280;18191;51.288;12.390;2023-02-02T08:44:04;49126.22;;;-144.47;69.04
31585;BME280;18191;51.288;12.390;2023-02-02T08:48:55;49114.28;;;-144.47;69.48
31585;BME280;18191;51.288;12.390;2023-02-02T08:53:45;49124.22;;;-144.47;69.53
31585;BME280;18191;51.288;12.390;2023-02-02T08:58:36;49120.25;;;-144.47;68.55
31585;BME280;18191;51.288;12.390;2023-02-02T09:03:26;49092.38;;;-144.47;68.39
31585;BME280;18191;51.288;12.390;2023-02-02T09:08:16;49120.25;;;-144.47;69.20
31585;BME280;18191;51.288;12.390;2023-02-02T09:13:06;49158.03;;;-144.47;69.13
31585;BME280;18191;51.288;12.390;2023-02-02T09:17:56;49114.28;;;-144.47;68.04
31585;BME280;18191;51.288;12.390;2023-02-02T09:22:47;49128.19;;;-144.47;68.78
31585;BME280;18191;51.288;12.390;2023-02-02T09:27:37;49112.28;;;-144.47;68.42
31585;BME280;18191;51.288;12.390;2023-02-02T09:32:29;49116.25;;;-144.47;67.51
31585;BME280;18191;51.288;12.390;2023-02-02T09:37:20;49138.16;;;-144.47;67.18
31585;BME280;18191;51.288;12.390;2023-02-02T09:42:17;49136.16;;;-144.47;66.85
31585;BME280;18191;51.288;12.390;2023-02-02T09:52:26;49116.25;;;-144.47;66.57
31585;BME280;18191;51.288;12.390;2023-02-02T09:57:21;49132.16;;;-144.47;67.10
31585;BME280;18191;51.288;12.390;2023-02-02T10:02:18;49128.19;;;-144.47;67.54
31585;BME280;18191;51.288;12.390;2023-02-02T10:07:12;49152.06;;;-144.47;67.31
31585;BME280;18191;51.288;12.390;2023-02-02T10:12:15;49122.22;;;-144.47;66.72
31585;BME280;18191;51.288;12.390;2023-02-02T10:22:11;49094.38;;;-144.47;66.82
31585;BME280;18191;51.288;12.390;2023-02-02T10:27:04;49122.22;;;-144.47;64.89
31585;BME280;18191;51.288;12.390;2023-02-02T10:46:44;49108.31;;;-144.47;64.56
31585;BME280;18191;51.288;12.390;2023-02-02T10:51:36;49096.38;;;-144.47;64.97
31585;BME280;18191;51.288;12.390;2023-02-02T10:56:31;49092.38;;;-144.47;65.06
31585;BME280;18191;51.288;12.390;2023-02-02T11:01:25;49090.41;;;-144.47;66.18
31585;BME280;18191;51.288;12.390;2023-02-02T11:06:15;49082.44;;;-144.47;65.81
31585;BME280;18191;51.288;12.390;2023-02-02T11:11:25;49128.19;;;-144.47;66.12
31585;BME280;18191;51.288;12.390;2023-02-02T11:26:26;49128.19;;;-144.47;67.14
31585;BME280;18191;51.288;12.390;2023-02-02T11:31:29;49120.25;;;-144.47;67.19
31585;BME280;18191;51.288;12.390;2023-02-02T11:36:20;49171.97;;;-144.47;66.13
31585;BME280;18191;51.288;12.390;2023-02-02T11:41:10;49114.28;;;-144.47;66.43
31585;BME280;18191;51.288;12.390;2023-02-02T11:46:04;49112.28;;;-144.47;67.29
31585;BME280;18191;51.288;12.390;2023-02-02T11:50:55;49128.19;;;-144.47;66.01
31585;BME280;18191;51.288;12.390;2023-02-02T11:55:46;49064.53;;;-144.47;66.65
31585;BME280;18191;51.288;12.390;2023-02-02T12:00:46;49183.91;;;-144.47;66.60
31585;BME280;18191;51.288;12.390;2023-02-02T12:05:37;49120.25;;;-144.47;65.61
31585;BME280;18191;51.288;12.390;2023-02-02T12:10:36;49124.22;;;-144.47;65.54
31585;BME280;18191;51.288;12.390;2023-02-02T12:30:33;49120.25;;;-144.47;73.59
31585;BME280;18191;51.288;12.390;2023-02-02T12:40:42;49092.38;;;-144.47;74.97
31585;BME280;18191;51.288;12.390;2023-02-02T12:45:41;49140.13;;;-144.47;73.98
31585;BME280;18191;51.288;12.390;2023-02-02T12:55:42;49080.44;;;-144.47;71.25
31585;BME280;18191;51.288;12.390;2023-02-02T13:00:52;49158.03;;;-144.47;69.47
31585;BME280;18191;51.288;12.390;2023-02-02T13:05:48;49136.16;;;-144.47;68.51
31585;BME280;18191;51.288;12.390;2023-02-02T13:10:48;49142.13;;;-144.47;70.33
31585;BME280;18191;51.288;12.390;2023-02-02T13:15:41;49116.25;;;-144.47;69.58
31585;BME280;18191;51.288;12.390;2023-02-02T13:25:27;49126.22;;;-144.47;70.23
31585;BME280;18191;51.288;12.390;2023-02-02T13:35:16;49120.25;;;-144.47;69.36
31585;BME280;18191;51.288;12.390;2023-02-02T13:45:00;49136.16;;;-144.47;71.17
31585;BME280;18191;51.288;12.390;2023-02-02T13:49:53;49120.25;;;-144.47;71.97
31585;BME280;18191;51.288;12.390;2023-02-02T13:54:56;49148.09;;;-144.47;73.18
31585;BME280;18191;51.288;12.390;2023-02-02T13:59:51;49140.13;;;-144.47;72.31
31585;BME280;18191;51.288;12.390;2023-02-02T14:04:43;49140.13;;;-144.47;72.14
31585;BME280;18191;51.288;12.390;2023-02-02T14:09:40;49104.31;;;-144.47;73.12
31585;BME280;18191;51.288;12.390;2023-02-02T14:14:31;49110.28;;;-144.47;73.60
31585;BME280;18191;51.288;12.390;2023-02-02T14:34:30;49138.16;;;-144.47;72.19
31585;BME280;18191;51.288;12.390;2023-02-02T14:39:22;49128.19;;;-144.47;70.50
31585;BME280;18191;51.288;12.390;2023-02-02T14:44:15;49140.13;;;-144.47;70.54
31585;BME280;18191;51.288;12.390;2023-02-02T14:49:06;49146.09;;;-144.47;71.19
31585;BME280;18191;51.288;12.390;2023-02-02T15:03:54;49100.34;;;-144.47;72.40
31585;BME280;18191;51.288;12.390;2023-02-02T15:08:44;49164.00;;;-144.47;73.66
31585;BME280;18191;51.288;12.390;2023-02-02T15:13:35;49122.22;;;-144.47;73.95
31585;BME280;18191;51.288;12.390;2023-02-02T15:18:29;49134.16;;;-144.47;74.40
31585;BME280;18191;51.288;12.390;2023-02-02T15:28:28;49136.16;;;-144.47;74.83
31585;BME280;18191;51.288;12.390;2023-02-02T15:33:29;49140.13;;;-144.47;75.18
31585;BME280;18191;51.288;12.390;2023-02-02T15:38:19;49148.09;;;-144.47;75.52
31585;BME280;18191;51.288;12.390;2023-02-02T15:43:10;49148.09;;;-144.47;75.72
31585;BME280;18191;51.288;12.390;2023-02-02T15:48:08;49156.03;;;-144.47;76.67
31585;BME280;18191;51.288;12.390;2023-02-02T15:53:05;49144.09;;;-144.47;78.64
31585;BME280;18191;51.288;12.390;2023-02-02T15:57:55;49108.31;;;-144.47;79.47
31585;BME280;18191;51.288;12.390;2023-02-02T16:02:45;49136.16;;;-144.47;78.87
31585;BME280;18191;51.288;12.390;2023-02-02T16:07:38;49100.34;;;-144.47;79.04
31585;BME280;18191;51.288;12.390;2023-02-02T16:12:28;49160.03;;;-144.47;80.00
31585;BME280;18191;51.288;12.390;2023-02-02T16:17:22;49136.16;;;-144.47;80.82
31585;BME280;18191;51.288;12.390;2023-02-02T16:22:14;49171.97;;;-144.47;82.41
31585;BME280;18191;51.288;12.390;2023-02-02T16:27:06;49136.16;;;-144.47;84.05
31585;BME280;18191;51.288;12.390;2023-02-02T16:31:57;49158.03;;;-144.47;84.37
31585;BME280;18191;51.288;12.390;2023-02-02T16:37:03;49122.22;;;-144.47;84.65
31585;BME280;18191;51.288;12.390;2023-02-02T16:41:54;49160.03;;;-144.47;82.96
31585;BME280;18191;51.288;12.390;2023-02-02T16:46:56;49148.09;;;-144.47;82.80
31585;BME280;18191;51.288;12.390;2023-02-02T16:51:48;49154.06;;;-144.47;82.29
31585;BME280;18191;51.288;12.390;2023-02-02T16:56:58;49177.94;;;-144.47;82.63
31585;BME280;18191;51.288;12.390;2023-02-02T17:01:51;49156.03;;;-144.47;81.50
31585;BME280;18191;51.288;12.390;2023-02-02T17:06:42;49156.03;;;-144.47;82.67
31585;BME280;18191;51.288;12.390;2023-02-02T17:11:32;49136.16;;;-144.47;84.29
31585;BME280;18191;51.288;12.390;2023-02-02T17:16:23;49152.06;;;-144.47;84.08
31585;BME280;18191;51.288;12.390;2023-02-02T17:21:17;49160.03;;;-144.47;84.48
31585;BME280;18191;51.288;12.390;2023-02-02T17:26:09;49140.13;;;-144.47;85.94
31585;BME280;18191;51.288;12.390;2023-02-02T17:31:01;49148.09;;;-144.47;86.08
31585;BME280;18191;51.288;12.390;2023-02-02T17:35:51;49160.03;;;-144.47;86.45
31585;BME280;18191;51.288;12.390;2023-02-02T17:40:42;49167.97;;;-144.47;85.71
31585;BME280;18191;51.288;12.390;2023-02-02T17:45:32;49179.91;;;-144.47;85.86
31585;BME280;18191;51.288;12.390;2023-02-02T17:50:23;49156.03;;;-144.47;85.80
31585;BME280;18191;51.288;12.390;2023-02-02T18:00:12;49128.19;;;-144.47;86.77
31585;BME280;18191;51.288;12.390;2023-02-02T18:05:03;49148.09;;;-144.47;87.48
31585;BME280;18191;51.288;12.390;2023-02-02T18:09:53;49179.91;;;-144.47;87.76
31585;BME280;18191;51.288;12.390;2023-02-02T18:14:44;49148.09;;;-144.47;86.46
31585;BME280;18191;51.288;12.390;2023-02-02T18:19:34;49144.09;;;-144.47;86.99
31585;BME280;18191;51.288;12.390;2023-02-02T18:24:24;49128.19;;;-144.47;87.12
31585;BME280;18191;51.288;12.390;2023-02-02T18:29:14;49152.06;;;-144.47;87.83
31585;BME280;18191;51.288;12.390;2023-02-02T18:34:04;49160.03;;;-144.47;87.53
31585;BME280;18191;51.288;12.390;2023-02-02T18:38:54;49144.09;;;-144.47;87.68
31585;BME280;18191;51.288;12.390;2023-02-02T18:43:45;49154.06;;;-144.47;87.76
31585;BME280;18191;51.288;12.390;2023-02-02T18:48:35;49114.28;;;-144.47;88.40
31585;BME280;18191;51.288;12.390;2023-02-02T18:53:26;49191.84;;;-144.47;87.62
31585;BME280;18191;51.288;12.390;2023-02-02T18:58:16;49189.88;;;-144.47;87.46
31585;BME280;18191;51.288;12.390;2023-02-02T19:03:06;49164.00;;;-144.47;87.49
31585;BME280;18191;51.288;12.390;2023-02-02T19:07:56;49183.91;;;-144.47;88.21
31585;BME280;18191;51.288;12.390;2023-02-02T19:12:54;49124.22;;;-144.47;88.18
31585;BME280;18191;51.288;12.390;2023-02-02T19:17:47;49171.97;;;-144.47;88.36
31585;BME280;18191;51.288;12.390;2023-02-02T19:22:38;49108.31;;;-144.47;88.31
31585;BME280;18191;51.288;12.390;2023-02-02T19:27:28;49148.09;;;-144.47;88.47
31585;BME280;18191;51.288;12.390;2023-02-02T19:32:21;49187.88;;;-144.47;88.70
31585;BME280;18191;51.288;12.390;2023-02-02T19:37:22;49136.16;;;-144.47;88.20
31585;BME280;18191;51.288;12.390;2023-02-02T19:42:13;49126.22;;;-144.47;88.58
31585;BME280;18191;51.288;12.390;2023-02-02T19:47:04;49199.81;;;-144.47;88.21
31585;BME280;18191;51.288;12.390;2023-02-02T19:52:03;49160.03;;;-144.47;88.22
31585;BME280;18191;51.288;12.390;2023-02-02T20:02:14;49187.88;;;-144.47;87.91
31585;BME280;18191;51.288;12.390;2023-02-02T20:07:10;49136.16;;;-144.47;88.52
31585;BME280;18191;51.288;12.390;2023-02-02T20:12:02;49136.16;;;-144.47;88.90
31585;BME280;18191;51.288;12.390;2023-02-02T20:17:27;49144.09;;;-144.47;87.28
31585;BME280;18191;51.288;12.390;2023-02-02T20:22:25;49162.00;;;-144.47;87.74
31585;BME280;18191;51.288;12.390;2023-02-02T20:27:18;49128.19;;;-144.47;88.06
31585;BME280;18191;51.288;12.390;2023-02-02T20:32:23;49166.00;;;-144.47;86.77
31585;BME280;18191;51.288;12.390;2023-02-02T20:37:25;49167.97;;;-144.47;86.25
31585;BME280;18191;51.288;12.390;2023-02-02T20:42:17;49175.94;;;-144.47;86.70
31585;BME280;18191;51.288;12.390;2023-02-02T20:47:08;49164.00;;;-144.47;86.76
31585;BME280;18191;51.288;12.390;2023-02-02T20:51:59;49120.25;;;-144.47;86.24
31585;BME280;18191;51.288;12.390;2023-02-02T20:56:49;49126.22;;;-144.47;86.32
31585;BME280;18191;51.288;12.390;2023-02-02T21:01:39;49156.03;;;-144.47;86.06
31585;BME280;18191;51.288;12.390;2023-02-02T21:06:30;49207.78;;;-144.47;86.58
31585;BME280;18191;51.288;12.390;2023-02-02T21:11:20;49152.06;;;-144.47;86.42
31585;BME280;18191;51.288;12.390;2023-02-02T21:16:10;49164.00;;;-144.47;87.31
31585;BME280;18191;51.288;12.390;2023-02-02T21:21:00;49154.06;;;-144.47;86.47
31585;BME280;18191;51.288;12.390;2023-02-02T21:25:50;49104.31;;;-144.47;85.94
31585;BME280;18191;51.288;12.390;2023-02-02T21:30:41;49148.09;;;-144.47;85.52
31585;BME280;18191;51.288;12.390;2023-02-02T21:35:31;49175.94;;;-144.47;85.31
31585;BME280;18191;51.288;12.390;2023-02-02T21:40:26;49144.09;;;-144.47;85.96
31585;BME280;18191;51.288;12.390;2023-02-02T21:50:15;49152.06;;;-144.47;85.17
31585;BME280;18191;51.288;12.390;2023-02-02T21:55:40;49122.22;;;-144.47;85.76
31585;BME280;18191;51.288;12.390;2023-02-02T22:00:26;49167.97;;;-144.47;84.82
31585;BME280;18191;51.288;12.390;2023-02-02T22:05:25;49164.00;;;-144.47;85.59
31585;BME280;18191;51.288;12.390;2023-02-02T22:10:35;49152.06;;;-144.47;86.90
31585;BME280;18191;51.288;12.390;2023-02-02T22:15:26;49156.03;;;-144.47;86.10
31585;BME280;18191;51.288;12.390;2023-02-02T22:20:32;49171.97;;;-144.47;86.13
31585;BME280;18191;51.288;12.390;2023-02-02T22:35:08;49173.94;;;-144.47;88.61
31585;BME280;18191;51.288;12.390;2023-02-02T22:39:58;49183.91;;;-144.47;88.94
31585;BME280;18191;51.288;12.390;2023-02-02T22:44:48;49144.09;;;-144.47;90.00
31585;BME280;18191;51.288;12.390;2023-02-02T22:49:39;49140.13;;;-144.47;90.72
31585;BME280;18191;51.288;12.390;2023-02-02T22:54:29;49154.06;;;-144.47;90.81
31585;BME280;18191;51.288;12.390;2023-02-02T22:59:20;49136.16;;;-144.47;90.33
31585;BME280;18191;51.288;12.390;2023-02-02T23:04:10;49175.94;;;-144.47;90.42
31585;BME280;18191;51.288;12.390;2023-02-02T23:09:00;49134.16;;;-144.47;90.56
31585;BME280;18191;51.288;12.390;2023-02-02T23:13:50;49164.00;;;-144.47;90.14
31585;BME280;18191;51.288;12.390;2023-02-02T23:18:40;49160.03;;;-144.47;91.61
31585;BME280;18191;51.288;12.390;2023-02-02T23:23:31;49164.00;;;-144.47;91.57
31585;BME280;18191;51.288;12.390;2023-02-02T23:28:21;49164.00;;;-144.47;91.79
31585;BME280;18191;51.288;12.390;2023-02-02T23:33:11;49138.16;;;-144.47;92.09
31585;BME280;18191;51.288;12.390;2023-02-02T23:38:01;49167.97;;;-144.47;92.70
31585;BME280;18191;51.288;12.390;2023-02-02T23:42:51;49152.06;;;-144.47;93.46
31585;BME280;18191;51.288;12.390;2023-02-02T23:47:41;49171.97;;;-144.47;93.55
31585;BME280;18191;51.288;12.390;2023-02-02T23:52:32;49183.91;;;-144.47;93.44
31585;BME280;18191;51.288;12.390;2023-02-02T23:57:22;49116.25;;;-144.47;94.14
